Time;durP1;ratioP1;P1;durP2;ratioP2;P2;SDS_P1;SDS_P2;PMS_P1;PMS_P2;Temp;Humidity;BMP_temperature;BMP_pressure;BME280_temperature;BME280_humidity;BME280_pressure;Samples;Min_cycle;Max_cycle;Signal;HPM_P1;HPM_P2
2022/02/09 00:01:10;;;;;;;6.35;1.92;;;;;;;;;;5108059;28;20047;-70
2022/02/09 00:03:50;;;;;;;4.07;1.90;;;;;;;;;;4797236;28;10000542;-72
2022/02/09 00:06:39;;;;;;;3.15;1.48;;;;;;;;;;1046015;28;10002013;-70
2022/02/09 00:09:07;;;;;;;4.15;2.10;;;;;;;;;;5085631;28;20130;-70
2022/02/09 00:11:42;;;;;;;5.78;2.05;;;;;;;;;;5102057;28;20131;-70
2022/02/09 00:14:20;;;;;;;2.22;1.33;;;;;;;;;;5093374;28;20510;-70
2022/02/09 00:17:15;;;;;;;2.15;1.40;;;;;;;;;;5100399;28;20135;-70
2022/02/09 00:20:00;;;;;;;3.70;1.58;;;;;;;;;;5092467;28;20120;-70
2022/02/09 00:22:42;;;;;;;6.53;2.13;;;;;;;;;;5097615;28;20536;-68
2022/02/09 00:26:21;;;;;;;5.00;1.75;;;;;;;;;;5090539;28;20661;-68
2022/02/09 00:31:30;;;;;;;6.55;1.60;;;;;;;;;;5092236;28;20042;-68
2022/02/09 00:34:27;;;;;;;3.55;1.58;;;;;;;;;;5112059;28;20130;-68
2022/02/09 00:37:19;;;;;;;3.85;1.60;;;;;;;;;;5108904;28;20047;-68
2022/02/09 00:40:29;;;;;;;4.88;2.05;;;;;;;;;;5110500;28;20047;-68
2022/02/09 01:00:06;;;;;;;5.15;1.30;;;;;;;;;;5106783;27;20495;-68
2022/02/09 01:38:01;;;;;;;3.08;1.73;;;;;;;;;;5110128;27;20047;-68
2022/02/09 01:38:57;;;;;;;2.92;1.58;;;;;;;;;;5112016;28;20104;-69
2022/02/09 01:55:32;;;;;;;2.80;1.38;;;;;;;;;;5032914;28;20068;-69
2022/02/09 01:58:00;;;;;;;3.70;1.83;;;;;;;;;;5077900;28;20142;-69
2022/02/09 02:00:29;;;;;;;5.93;1.83;;;;;;;;;;5107535;28;20562;-69
2022/02/09 02:02:58;;;;;;;3.63;1.25;;;;;;;;;;5107881;28;20062;-69
2022/02/09 02:05:27;;;;;;;2.53;1.30;;;;;;;;;;5103873;28;20070;-69
2022/02/09 02:07:58;;;;;;;4.93;1.70;;;;;;;;;;5105838;28;20135;-69
2022/02/09 02:10:35;;;;;;;3.58;1.55;;;;;;;;;;5107286;28;20134;-70
2022/02/09 02:16:20;;;;;;;4.27;1.85;;;;;;;;;;3200979;28;10001840;-70
2022/02/09 02:18:53;;;;;;;3.45;2.08;;;;;;;;;;3330696;28;10001897;-70
2022/02/09 02:21:41;;;;;;;3.17;1.48;;;;;;;;;;5109456;28;20054;-70
2022/02/09 02:24:38;;;;;;;4.47;1.67;;;;;;;;;;5109964;28;20104;-70
2022/02/09 02:27:31;;;;;;;3.95;1.67;;;;;;;;;;5103384;28;20071;-70
2022/02/09 02:33:06;;;;;;;;;;;;;;;;;;5107791;28;20498;-70
2022/02/09 02:35:59;;;;;;;3.67;1.67;;;;;;;;;;5098202;28;20010;-70
2022/02/09 02:58:41;;;;;;;2.70;1.73;;;;;;;;;;5108877;28;20123;-70
2022/02/09 03:09:46;;;;;;;3.17;1.58;;;;;;;;;;5108507;28;20075;-70
2022/02/09 03:12:19;;;;;;;4.32;1.63;;;;;;;;;;5107457;28;20929;-70
2022/02/09 03:14:54;;;;;;;4.80;1.60;;;;;;;;;;5109187;28;20043;-70
2022/02/09 03:17:31;;;;;;;3.08;1.65;;;;;;;;;;5107933;28;20050;-70
2022/02/09 03:20:04;;;;;;;3.50;1.63;;;;;;;;;;5102974;28;20122;-70
2022/02/09 03:22:49;;;;;;;2.60;1.77;;;;;;;;;;5099756;28;20166;-70
2022/02/09 03:25:41;;;;;;;2.42;1.58;;;;;;;;;;5102586;28;20082;-70
2022/02/09 03:31:14;;;;;;;1.45;1.08;;;;;;;;;;5095787;28;20075;-70
2022/02/09 03:42:34;;;;;;;4.40;1.48;;;;;;;;;;5103043;28;20135;-70
2022/02/09 03:48:20;;;;;;;2.28;1.27;;;;;;;;;;5043113;28;20551;-70
2022/02/09 03:51:09;;;;;;;4.45;1.48;;;;;;;;;;5100170;28;20478;-70
2022/02/09 03:56:29;;;;;;;5.07;1.60;;;;;;;;;;5102013;28;20052;-69
2022/02/09 03:58:58;;;;;;;6.45;1.58;;;;;;;;;;5106645;28;20049;-69
2022/02/09 04:01:34;;;;;;;5.70;1.30;;;;;;;;;;5110691;28;20044;-70
2022/02/09 04:04:02;;;;;;;3.30;1.10;;;;;;;;;;5108316;28;20042;-70
2022/02/09 04:06:34;;;;;;;4.28;1.38;;;;;;;;;;5109574;28;20547;-70
2022/02/09 04:09:06;;;;;;;2.58;1.23;;;;;;;;;;5109733;28;20074;-70
2022/02/09 04:11:39;;;;;;;1.65;0.90;;;;;;;;;;5109719;28;20134;-70
2022/02/09 04:14:16;;;;;;;2.40;1.13;;;;;;;;;;5107586;27;20483;-70
2022/02/09 04:16:57;;;;;;;4.88;1.58;;;;;;;;;;5104348;28;20056;-70
2022/02/09 04:19:37;;;;;;;5.07;1.55;;;;;;;;;;5104223;27;20111;-70
2022/02/09 04:36:27;;;;;;;2.50;1.05;;;;;;;;;;3300163;28;10002230;-70
2022/02/09 04:39:00;;;;;;;5.47;1.08;;;;;;;;;;2990635;28;10001978;-70
2022/02/09 04:44:41;;;;;;;1.70;0.98;;;;;;;;;;5104633;28;20473;-70
2022/02/09 04:47:25;;;;;;;1.60;0.98;;;;;;;;;;5100066;28;20134;-70
2022/02/09 04:50:06;;;;;;;3.00;1.00;;;;;;;;;;5109854;28;20135;-70
2022/02/09 04:52:51;;;;;;;1.75;0.90;;;;;;;;;;5111543;28;20131;-70
2022/02/09 04:55:47;;;;;;;5.43;1.42;;;;;;;;;;5102786;28;20050;-70
2022/02/09 04:58:25;;;;;;;2.53;1.35;;;;;;;;;;5074882;28;20056;-70
2022/02/09 05:01:01;;;;;;;4.15;1.30;;;;;;;;;;5101166;28;20130;-70
2022/02/09 05:04:06;;;;;;;2.10;1.23;;;;;;;;;;5111618;27;20588;-70
2022/02/09 05:18:07;;;;;;;2.10;0.90;;;;;;;;;;5107474;28;20143;-70
2022/02/09 05:26:19;;;;;;;1.42;0.98;;;;;;;;;;5105784;28;20075;-70
2022/02/09 05:28:47;;;;;;;1.05;0.70;;;;;;;;;;5101039;28;20414;-70
2022/02/09 05:31:16;;;;;;;1.90;0.90;;;;;;;;;;5111143;28;20529;-70
2022/02/09 05:33:48;;;;;;;2.88;1.20;;;;;;;;;;5110590;28;20475;-70
2022/02/09 05:36:16;;;;;;;1.98;0.93;;;;;;;;;;5110705;28;20067;-70
2022/02/09 05:38:46;;;;;;;2.22;0.90;;;;;;;;;;5107973;28;20142;-70
2022/02/09 05:41:14;;;;;;;1.95;1.10;;;;;;;;;;5110496;28;20048;-70
2022/02/09 05:43:43;;;;;;;2.42;1.08;;;;;;;;;;5110120;28;20126;-70
2022/02/09 05:46:48;;;;;;;3.40;1.05;;;;;;;;;;5110985;28;20047;-70
2022/02/09 05:49:30;;;;;;;1.95;1.30;;;;;;;;;;5105079;28;20435;-70
2022/02/09 05:52:02;;;;;;;3.25;1.40;;;;;;;;;;5110794;28;20457;-70
2022/02/09 05:54:59;;;;;;;2.95;1.40;;;;;;;;;;5109918;28;20150;-70
2022/02/09 05:57:28;;;;;;;2.55;1.55;;;;;;;;;;5108923;27;20190;-70
2022/02/09 05:59:56;;;;;;;7.00;1.50;;;;;;;;;;5105900;28;20067;-70
2022/02/09 06:02:24;;;;;;;5.28;1.08;;;;;;;;;;5109786;28;20122;-70
2022/02/09 06:04:53;;;;;;;2.65;1.10;;;;;;;;;;5110154;28;20582;-70
2022/02/09 06:07:21;;;;;;;2.25;1.08;;;;;;;;;;5108180;28;20134;-71
2022/02/09 06:09:51;;;;;;;5.03;1.30;;;;;;;;;;5106489;28;20051;-71
2022/02/09 06:12:24;;;;;;;2.42;0.90;;;;;;;;;;5111570;27;20376;-70
2022/02/09 06:15:20;;;;;;;3.10;1.02;;;;;;;;;;5111999;27;20127;-70
2022/02/09 06:20:36;;;;;;;1.45;0.80;;;;;;;;;;5107595;27;20075;-70
2022/02/09 06:23:04;;;;;;;1.45;0.95;;;;;;;;;;5103831;28;20352;-70
2022/02/09 06:25:35;;;;;;;1.20;0.90;;;;;;;;;;5106442;28;20467;-70
2022/02/09 06:28:03;;;;;;;2.42;1.13;;;;;;;;;;5103785;27;20043;-70
2022/02/09 06:30:31;;;;;;;1.05;0.73;;;;;;;;;;5103106;28;20489;-70
2022/02/09 06:32:59;;;;;;;3.33;0.98;;;;;;;;;;5105109;27;20154;-70
2022/02/09 06:35:28;;;;;;;1.55;1.05;;;;;;;;;;5097881;28;20466;-70
2022/02/09 06:37:59;;;;;;;1.88;1.20;;;;;;;;;;5101895;28;20144;-70
2022/02/09 06:40:42;;;;;;;2.52;0.63;;;;;;;;;;560202;28;10022907;-70
2022/02/09 06:43:12;;;;;;;1.92;1.15;;;;;;;;;;5116376;27;20255;-70
2022/02/09 06:45:42;;;;;;;3.83;1.10;;;;;;;;;;5103088;28;20116;-70
2022/02/09 06:48:11;;;;;;;2.08;1.05;;;;;;;;;;5068861;28;20131;-70
2022/02/09 06:50:43;;;;;;;2.47;0.63;;;;;;;;;;5106291;28;20048;-70
2022/02/09 06:53:26;;;;;;;2.80;0.93;;;;;;;;;;5105982;28;20130;-70
2022/02/09 06:55:58;;;;;;;4.03;1.10;;;;;;;;;;5103474;28;20047;-70
2022/02/09 06:58:44;;;;;;;2.20;1.30;;;;;;;;;;5103999;28;20136;-70
2022/02/09 07:01:12;;;;;;;1.88;1.00;;;;;;;;;;5105569;28;20504;-70
2022/02/09 07:03:41;;;;;;;2.53;1.25;;;;;;;;;;5106113;28;20142;-70
2022/02/09 07:06:09;;;;;;;2.20;1.23;;;;;;;;;;5096951;28;20528;-70
2022/02/09 07:08:37;;;;;;;2.63;1.33;;;;;;;;;;5096218;28;20535;-70
2022/02/09 07:11:09;;;;;;;1.55;1.25;;;;;;;;;;5101305;28;20047;-70
2022/02/09 07:13:37;;;;;;;3.20;1.35;;;;;;;;;;5100256;28;20147;-70
2022/02/09 07:16:06;;;;;;;4.95;1.23;;;;;;;;;;5110772;27;20096;-70
2022/02/09 07:18:36;;;;;;;5.53;1.42;;;;;;;;;;5106251;27;20044;-70
2022/02/09 07:21:13;;;;;;;3.60;1.30;;;;;;;;;;5103089;27;20143;-70
2022/02/09 07:23:45;;;;;;;3.28;1.23;;;;;;;;;;5104117;28;20530;-70
2022/02/09 07:26:19;;;;;;;2.70;1.30;;;;;;;;;;5105146;28;20094;-70
2022/02/09 07:28:47;;;;;;;2.55;1.17;;;;;;;;;;5100533;28;20119;-70
2022/02/09 07:31:16;;;;;;;3.20;1.23;;;;;;;;;;5105879;28;20159;-70
2022/02/09 07:33:45;;;;;;;5.97;1.63;;;;;;;;;;5102546;28;20503;-70
2022/02/09 07:36:14;;;;;;;5.05;2.28;;;;;;;;;;5103851;28;20059;-70
2022/02/09 07:38:45;;;;;;;5.25;1.90;;;;;;;;;;5109775;28;20054;-70
2022/02/09 07:41:15;;;;;;;4.60;1.98;;;;;;;;;;5101386;28;20058;-70
2022/02/09 07:43:49;;;;;;;6.15;1.67;;;;;;;;;;5103131;28;20108;-70
2022/02/09 07:46:40;;;;;;;2.97;1.83;;;;;;;;;;5099934;28;20142;-70
2022/02/09 07:49:21;;;;;;;3.55;1.42;;;;;;;;;;5099793;28;20048;-70
2022/02/09 07:51:57;;;;;;;6.40;1.40;;;;;;;;;;5105691;28;20457;-70
2022/02/09 07:54:26;;;;;;;3.30;1.50;;;;;;;;;;5100032;28;20075;-70
2022/02/09 07:56:56;;;;;;;3.95;1.40;;;;;;;;;;5104794;28;20062;-70
2022/02/09 07:59:25;;;;;;;5.32;1.77;;;;;;;;;;5101093;28;20375;-70
2022/02/09 08:01:54;;;;;;;5.32;1.80;;;;;;;;;;5104891;28;20456;-70
2022/02/09 08:04:39;;;;;;;5.70;1.72;;;;;;;;;;4160969;28;10002060;-70
2022/02/09 08:07:08;;;;;;;5.45;1.67;;;;;;;;;;2087620;28;10002213;-70
2022/02/09 08:09:40;;;;;;;5.07;1.58;;;;;;;;;;5084645;28;20043;-70
2022/02/09 08:29:09;;;;;;;2.78;1.48;;;;;;;;;;5086003;28;20040;-71
2022/02/09 08:32:24;;;;;;;3.47;1.58;;;;;;;;;;5106363;28;20051;-71
2022/02/09 08:34:35;;;;;;;10.00;1.77;;;;;;;;;;5098962;28;20415;-69
2022/02/09 08:37:04;;;;;;;6.22;2.13;;;;;;;;;;5112115;28;20402;-70
2022/02/09 08:39:33;;;;;;;12.02;2.35;;;;;;;;;;5106877;28;20055;-70
2022/02/09 08:42:02;;;;;;;8.82;1.95;;;;;;;;;;5111040;28;20466;-70
2022/02/09 08:44:32;;;;;;;8.82;1.98;;;;;;;;;;5107925;28;20150;-70
2022/02/09 08:47:01;;;;;;;6.43;1.33;;;;;;;;;;5103843;28;20143;-70
2022/02/09 08:49:30;;;;;;;3.35;1.55;;;;;;;;;;5111411;28;20044;-70
2022/02/09 08:51:59;;;;;;;4.50;1.05;;;;;;;;;;5110796;28;20085;-70
2022/02/09 08:54:29;;;;;;;4.13;1.42;;;;;;;;;;5112157;28;20405;-70
2022/02/09 08:56:59;;;;;;;7.72;1.85;;;;;;;;;;5110550;27;20089;-70
2022/02/09 08:59:29;;;;;;;6.43;1.23;;;;;;;;;;5110632;28;20047;-70
2022/02/09 09:02:02;;;;;;;3.20;1.23;;;;;;;;;;5106463;28;20048;-70
2022/02/09 09:04:35;;;;;;;1.85;1.35;;;;;;;;;;5107042;28;20130;-70
2022/02/09 09:07:10;;;;;;;1.73;1.17;;;;;;;;;;5109685;28;20047;-70
2022/02/09 09:09:48;;;;;;;3.15;1.40;;;;;;;;;;5109241;28;20035;-71
2022/02/09 09:41:14;;;;;;;1.95;1.00;;;;;;;;;;5107866;27;20463;-70
2022/02/09 10:01:09;;;;;;;3.75;1.10;;;;;;;;;;5106650;28;20058;-71
2022/02/09 10:03:29;;;;;;;6.45;1.20;;;;;;;;;;5110169;28;20058;-71
2022/02/09 10:34:21;;;;;;;1.77;1.00;;;;;;;;;;5109404;28;20050;-72
2022/02/09 10:36:52;;;;;;;2.75;0.80;;;;;;;;;;5115402;27;20084;-72
2022/02/09 10:39:25;;;;;;;3.53;1.17;;;;;;;;;;5105219;27;20126;-72
2022/02/09 10:42:02;;;;;;;2.38;0.88;;;;;;;;;;5107516;27;20051;-71
2022/02/09 10:44:44;;;;;;;6.18;0.85;;;;;;;;;;5096391;28;20066;-72
2022/02/09 10:47:24;;;;;;;3.47;1.17;;;;;;;;;;5102420;28;20446;-72
2022/02/09 10:50:09;;;;;;;2.85;1.02;;;;;;;;;;5104432;28;20051;-72
2022/02/09 10:52:40;;;;;;;3.17;1.20;;;;;;;;;;5109981;28;20058;-72
2022/02/09 10:55:25;;;;;;;2.40;1.02;;;;;;;;;;5105787;27;20407;-72
2022/02/09 10:58:01;;;;;;;3.22;1.48;;;;;;;;;;5101462;27;20117;-72
2022/02/09 11:00:29;;;;;;;2.63;0.90;;;;;;;;;;5107634;27;20078;-72
2022/02/09 11:02:59;;;;;;;5.25;1.23;;;;;;;;;;5111776;27;20410;-72
2022/02/09 11:05:28;;;;;;;1.33;0.88;;;;;;;;;;5108210;28;20043;-72
2022/02/09 11:07:57;;;;;;;3.05;1.52;;;;;;;;;;5107965;28;20040;-72
2022/02/09 11:10:26;;;;;;;2.50;1.10;;;;;;;;;;5108878;28;20477;-72
2022/02/09 11:12:56;;;;;;;3.15;1.33;;;;;;;;;;5107309;27;20052;-72
2022/02/09 11:15:27;;;;;;;2.00;0.93;;;;;;;;;;5101743;27;20074;-72
2022/02/09 11:17:56;;;;;;;2.05;1.05;;;;;;;;;;5107582;28;20054;-72
2022/02/09 11:20:29;;;;;;;2.75;1.30;;;;;;;;;;5107122;28;20047;-72
2022/02/09 11:22:57;;;;;;;4.43;1.30;;;;;;;;;;5099360;28;20134;-72
2022/02/09 11:25:31;;;;;;;2.65;0.80;;;;;;;;;;5086933;28;20052;-72
2022/02/09 11:28:20;;;;;;;3.17;1.10;;;;;;;;;;5110664;28;20453;-72
2022/02/09 11:31:07;;;;;;;5.28;1.30;;;;;;;;;;5097786;27;20131;-72
2022/02/09 11:33:50;;;;;;;3.83;1.23;;;;;;;;;;5107986;28;20101;-72
2022/02/09 11:36:28;;;;;;;2.35;0.95;;;;;;;;;;5108301;28;20063;-73
2022/02/09 11:39:05;;;;;;;1.70;0.73;;;;;;;;;;5109667;28;20039;-72
2022/02/09 11:41:37;;;;;;;1.63;0.82;;;;;;;;;;5099491;28;20079;-72
2022/02/09 11:44:12;;;;;;;2.70;1.05;;;;;;;;;;5107657;28;20043;-70
2022/02/09 11:46:56;;;;;;;1.90;0.77;;;;;;;;;;5107873;28;20051;-71
2022/02/09 11:49:54;;;;;;;2.00;0.70;;;;;;;;;;5119007;28;20166;-72
2022/02/09 11:52:49;;;;;;;2.92;0.85;;;;;;;;;;5100071;28;20119;-72
2022/02/09 11:58:46;;;;;;;1.50;0.70;;;;;;;;;;5060445;28;20058;-72
2022/02/09 12:10:18;;;;;;;1.38;0.80;;;;;;;;;;5109040;28;20055;-72
2022/02/09 12:12:52;;;;;;;1.77;0.80;;;;;;;;;;5108484;28;20070;-72
2022/02/09 12:15:46;;;;;;;1.30;0.85;;;;;;;;;;5109082;28;20039;-72
2022/02/09 12:18:25;;;;;;;2.08;0.73;;;;;;;;;;5058089;28;20052;-72
2022/02/09 12:21:01;;;;;;;1.45;0.82;;;;;;;;;;5098305;28;20126;-73
2022/02/09 12:23:34;;;;;;;4.03;0.80;;;;;;;;;;5096055;28;20059;-73
2022/02/09 12:26:11;;;;;;;2.10;1.00;;;;;;;;;;5083666;28;20138;-73
2022/02/09 12:28:43;;;;;;;3.95;1.33;;;;;;;;;;5090441;28;20043;-73
2022/02/09 12:31:12;;;;;;;1.77;0.80;;;;;;;;;;5088547;28;20098;-71
2022/02/09 12:33:42;;;;;;;1.67;0.82;;;;;;;;;;5080895;28;20153;-71
2022/02/09 12:36:14;;;;;;;2.13;0.65;;;;;;;;;;5085356;28;20052;-71
2022/02/09 12:38:44;;;;;;;1.90;0.80;;;;;;;;;;5094260;28;20269;-71
2022/02/09 12:41:14;;;;;;;2.97;0.90;;;;;;;;;;5088050;28;20048;-71
2022/02/09 12:43:54;;;;;;;1.40;0.80;;;;;;;;;;5097744;28;20066;-71
2022/02/09 12:46:28;;;;;;;2.38;0.82;;;;;;;;;;5088327;28;20044;-71
2022/02/09 12:49:05;;;;;;;1.00;0.70;;;;;;;;;;5088705;28;20052;-71
2022/02/09 12:51:36;;;;;;;1.00;0.60;;;;;;;;;;5095035;28;20317;-71
2022/02/09 12:54:08;;;;;;;1.38;0.80;;;;;;;;;;5095792;28;20401;-71
2022/02/09 12:56:37;;;;;;;1.55;0.90;;;;;;;;;;5076452;28;20071;-72
2022/02/09 12:59:08;;;;;;;1.40;0.73;;;;;;;;;;5080028;28;20052;-71
2022/02/09 13:01:41;;;;;;;2.03;0.60;;;;;;;;;;5078850;28;20044;-71
2022/02/09 13:04:10;;;;;;;1.00;0.82;;;;;;;;;;5073983;28;20048;-71
2022/02/09 13:06:46;;;;;;;2.78;0.90;;;;;;;;;;5081596;28;20085;-71
2022/02/09 13:09:18;;;;;;;1.20;0.70;;;;;;;;;;5075013;28;20289;-71
2022/02/09 13:11:47;;;;;;;1.08;0.80;;;;;;;;;;5084360;28;20048;-71
2022/02/09 13:14:25;;;;;;;0.73;0.60;;;;;;;;;;5069342;28;20045;-72
2022/02/09 13:17:09;;;;;;;1.63;0.68;;;;;;;;;;5072302;28;20060;-72
2022/02/09 13:20:15;;;;;;;1.50;0.60;;;;;;;;;;5079839;28;20044;-72
2022/02/09 13:23:21;;;;;;;0.98;0.70;;;;;;;;;;5087426;28;20511;-72
2022/02/09 14:11:54;;;;;;;1.23;0.50;;;;;;;;;;5106449;27;20827;-73
2022/02/09 14:48:17;;;;;;;0.88;0.40;;;;;;;;;;5108107;28;20410;-73
2022/02/09 14:53:37;;;;;;;2.28;0.60;;;;;;;;;;5099938;28;20075;-73
2022/02/09 14:56:14;;;;;;;1.65;0.40;;;;;;;;;;5105214;28;20542;-73
2022/02/09 14:58:46;;;;;;;1.25;0.50;;;;;;;;;;5108547;28;20071;-73
2022/02/09 15:01:19;;;;;;;2.42;0.55;;;;;;;;;;5109969;28;20047;-73
2022/02/09 15:09:22;;;;;;;0.57;0.40;;;;;;;;;;5106374;28;20097;-73
2022/02/09 15:11:57;;;;;;;1.38;0.52;;;;;;;;;;5110265;27;20050;-72
2022/02/09 15:14:33;;;;;;;1.00;0.70;;;;;;;;;;5104709;28;20650;-73
2022/02/09 15:17:24;;;;;;;3.78;0.90;;;;;;;;;;5101671;28;20043;-72
2022/02/09 15:20:39;;;;;;;2.42;0.60;;;;;;;;;;5104735;28;20097;-72
2022/02/09 15:23:18;;;;;;;1.63;0.73;;;;;;;;;;5086495;28;20056;-72
2022/02/09 15:25:46;;;;;;;0.95;0.60;;;;;;;;;;5084874;28;20458;-73
2022/02/09 15:28:15;;;;;;;2.00;0.50;;;;;;;;;;5073104;28;20666;-72
2022/02/09 15:30:51;;;;;;;1.40;0.60;;;;;;;;;;5087953;28;20475;-72
2022/02/09 15:33:24;;;;;;;1.33;0.60;;;;;;;;;;5084012;28;20051;-72
2022/02/09 15:36:18;;;;;;;4.35;0.80;;;;;;;;;;5080218;28;20535;-72
2022/02/09 15:38:47;;;;;;;2.47;0.60;;;;;;;;;;5091571;28;20086;-72
2022/02/09 15:41:24;;;;;;;2.33;0.55;;;;;;;;;;5087055;28;20043;-72
2022/02/09 15:56:15;;;;;;;2.80;0.75;;;;;;;;;;5094872;28;20044;-72
2022/02/09 15:58:21;;;;;;;1.45;0.47;;;;;;;;;;5088660;28;20044;-72
2022/02/09 16:07:00;;;;;;;1.58;0.52;;;;;;;;;;2808247;28;10002229;-72
2022/02/09 16:09:30;;;;;;;1.15;0.52;;;;;;;;;;5092235;28;20070;-72
2022/02/09 16:23:11;;;;;;;5.93;0.82;;;;;;;;;;5101808;28;20143;-72
2022/02/09 16:26:00;;;;;;;1.17;0.80;;;;;;;;;;5111125;27;20041;-72
2022/02/09 16:34:34;;;;;;;3.25;1.00;;;;;;;;;;5111957;27;20109;-72
2022/02/09 16:45:55;;;;;;;3.63;0.90;;;;;;;;;;5111600;28;20050;-72
2022/02/09 16:48:24;;;;;;;5.75;1.27;;;;;;;;;;5085473;28;20106;-72
2022/02/09 16:50:53;;;;;;;1.83;0.80;;;;;;;;;;5111045;28;20465;-71
2022/02/09 16:53:42;;;;;;;6.88;1.70;;;;;;;;;;5109750;28;20050;-72
2022/02/09 16:56:37;;;;;;;7.63;1.27;;;;;;;;;;5108600;28;20048;-72
2022/02/09 17:18:51;;;;;;;8.40;2.45;;;;;;;;;;5102448;28;20046;-72
2022/02/09 17:21:21;;;;;;;9.63;1.80;;;;;;;;;;5108879;27;20342;-72
2022/02/09 17:23:50;;;;;;;6.47;1.33;;;;;;;;;;5108918;28;20114;-71
2022/02/09 17:26:20;;;;;;;10.07;2.35;;;;;;;;;;5098449;28;20051;-72
2022/02/09 17:28:57;;;;;;;3.00;1.02;;;;;;;;;;5108356;28;20072;-72
2022/02/09 17:31:33;;;;;;;9.75;1.35;;;;;;;;;;5104926;28;20051;-72
2022/02/09 17:37:09;;;;;;;2.10;0.82;;;;;;;;;;5081830;28;20133;-72
2022/02/09 17:53:33;;;;;;;2.38;0.80;;;;;;;;;;5107981;27;20047;-70
2022/02/09 17:56:09;;;;;;;3.33;0.90;;;;;;;;;;5103978;27;20055;-71
2022/02/09 17:58:44;;;;;;;5.45;0.95;;;;;;;;;;5119478;27;20111;-71
2022/02/09 18:01:14;;;;;;;11.38;1.02;;;;;;;;;;5098519;27;20039;-71
2022/02/09 18:03:45;;;;;;;7.63;1.02;;;;;;;;;;5101991;28;20062;-71
2022/02/09 18:06:19;;;;;;;6.70;1.13;;;;;;;;;;5110641;28;20402;-71
2022/02/09 18:08:56;;;;;;;2.65;0.65;;;;;;;;;;5110160;28;20051;-71
2022/02/09 18:14:33;;;;;;;4.00;0.75;;;;;;;;;;5108085;28;20477;-71
2022/02/09 18:31:09;;;;;;;3.50;0.68;;;;;;;;;;5105513;28;20047;-70
2022/02/09 18:33:52;;;;;;;1.90;0.73;;;;;;;;;;5102157;27;20411;-70
2022/02/09 18:45:01;;;;;;;2.35;0.90;;;;;;;;;;5100047;27;20133;-71
2022/02/09 18:47:50;;;;;;;;;;;;;;;;;;5103720;27;20142;-70
2022/02/09 19:01:57;;;;;;;3.15;0.70;;;;;;;;;;5097488;28;20678;-70
2022/02/09 19:04:28;;;;;;;1.30;0.52;;;;;;;;;;5108818;27;20047;-71
2022/02/09 19:07:19;;;;;;;3.22;1.27;;;;;;;;;;5110842;27;20101;-71
2022/02/09 19:15:47;;;;;;;4.78;0.80;;;;;;;;;;5098058;28;20419;-70
2022/02/09 19:26:59;;;;;;;1.77;0.63;;;;;;;;;;5105448;28;20546;-70
2022/02/09 19:29:57;;;;;;;3.97;1.02;;;;;;;;;;5105079;27;20210;-70
2022/02/09 19:32:44;;;;;;;2.08;0.90;;;;;;;;;;5106667;27;20112;-70
2022/02/09 19:46:44;;;;;;;2.00;1.00;;;;;;;;;;5104974;28;20147;-69
2022/02/09 19:49:18;;;;;;;3.50;0.88;;;;;;;;;;5110915;28;20040;-69
2022/02/09 19:52:02;;;;;;;1.73;0.90;;;;;;;;;;5098842;28;20044;-69
2022/02/09 19:54:42;;;;;;;1.88;1.20;;;;;;;;;;5101276;28;20047;-69
2022/02/09 19:57:12;;;;;;;3.47;1.02;;;;;;;;;;5110432;28;20129;-69
2022/02/09 19:59:43;;;;;;;2.33;1.02;;;;;;;;;;5114404;28;20056;-70
2022/02/09 20:02:13;;;;;;;4.35;1.00;;;;;;;;;;5104917;28;20051;-70
2022/02/09 20:04:42;;;;;;;2.25;0.90;;;;;;;;;;5108758;28;20132;-70
2022/02/09 20:07:10;;;;;;;2.90;1.15;;;;;;;;;;5105374;28;20063;-70
2022/02/09 20:09:39;;;;;;;2.20;1.38;;;;;;;;;;5104473;28;20104;-70
2022/02/09 20:12:08;;;;;;;3.10;1.50;;;;;;;;;;5099013;28;20250;-70
2022/02/09 20:14:37;;;;;;;2.85;1.83;;;;;;;;;;5103472;28;20495;-70
2022/02/09 20:17:08;;;;;;;6.85;1.50;;;;;;;;;;5102899;28;20051;-70
2022/02/09 20:19:39;;;;;;;2.78;1.65;;;;;;;;;;5106759;28;20048;-70
2022/02/09 20:22:07;;;;;;;5.30;1.70;;;;;;;;;;5108946;28;20059;-70
2022/02/09 20:24:37;;;;;;;3.58;1.80;;;;;;;;;;5108989;28;20490;-70
2022/02/09 20:27:06;;;;;;;4.20;1.77;;;;;;;;;;5106584;28;20135;-70
2022/02/09 20:29:38;;;;;;;5.05;1.50;;;;;;;;;;5113322;28;20130;-70
2022/02/09 20:32:17;;;;;;;3.53;1.70;;;;;;;;;;5108952;28;20101;-70
2022/02/09 20:34:53;;;;;;;6.40;1.85;;;;;;;;;;5105815;28;20035;-70
2022/02/09 20:37:24;;;;;;;6.50;2.20;;;;;;;;;;5106382;28;20066;-70
2022/02/09 20:40:00;;;;;;;5.80;2.00;;;;;;;;;;5103720;28;20051;-70
2022/02/09 20:42:29;;;;;;;3.85;2.05;;;;;;;;;;5110875;28;20087;-70
2022/02/09 20:45:04;;;;;;;5.90;1.92;;;;;;;;;;5103159;28;20097;-70
2022/02/09 20:47:33;;;;;;;;;;;;;;;;;;5104675;28;20047;-70
2022/02/09 20:50:04;;;;;;;5.95;2.15;;;;;;;;;;5112157;27;20382;-70
2022/02/09 20:52:35;;;;;;;9.50;2.88;;;;;;;;;;5108481;28;20535;-70
2022/02/09 20:55:04;;;;;;;6.90;2.40;;;;;;;;;;5108144;28;20055;-70
2022/02/09 20:57:34;;;;;;;4.57;2.45;;;;;;;;;;5113334;27;20052;-70
2022/02/09 21:00:07;;;;;;;5.75;2.75;;;;;;;;;;5105915;28;20043;-69
2022/02/09 21:02:49;;;;;;;7.55;3.05;;;;;;;;;;5107446;27;20395;-69
2022/02/09 21:05:32;;;;;;;6.68;2.88;;;;;;;;;;5107729;27;20127;-69
2022/02/09 21:08:13;;;;;;;7.20;2.95;;;;;;;;;;5109792;27;20403;-69
2022/02/09 21:10:49;;;;;;;13.93;3.63;;;;;;;;;;5106498;27;20130;-69
2022/02/09 21:13:28;;;;;;;7.75;2.85;;;;;;;;;;5114829;27;20083;-69
2022/02/09 21:16:11;;;;;;;6.72;3.30;;;;;;;;;;5109409;27;20083;-70
2022/02/09 21:33:18;;;;;;;7.82;2.60;;;;;;;;;;5088742;27;20053;-69
2022/02/09 21:42:10;;;;;;;4.78;2.20;;;;;;;;;;3341971;27;10002116;-69
2022/02/09 21:45:00;;;;;;;2.92;1.70;;;;;;;;;;5111575;27;20044;-69
2022/02/09 21:56:02;;;;;;;7.22;1.90;;;;;;;;;;5075148;27;20376;-69
2022/02/09 21:58:41;;;;;;;5.80;2.17;;;;;;;;;;5112296;27;20056;-69
2022/02/09 22:26:49;;;;;;;8.00;2.22;;;;;;;;;;5102481;28;20051;-69
2022/02/09 22:32:14;;;;;;;3.45;2.13;;;;;;;;;;5110793;27;20040;-69
2022/02/09 22:46:41;;;;;;;7.43;2.55;;;;;;;;;;5123594;27;20039;-69
2022/02/09 22:49:15;;;;;;;6.20;2.47;;;;;;;;;;5118842;27;20122;-69
2022/02/09 22:54:36;;;;;;;6.43;2.78;;;;;;;;;;5114110;27;20047;-69
2022/02/09 22:57:04;;;;;;;4.78;2.30;;;;;;;;;;5110168;28;20067;-69
2022/02/09 22:59:40;;;;;;;5.50;2.55;;;;;;;;;;5112339;27;20060;-69
2022/02/09 23:02:20;;;;;;;11.80;2.88;;;;;;;;;;5109405;28;20044;-69
2022/02/09 23:05:05;;;;;;;8.57;2.63;;;;;;;;;;5094695;28;20544;-69
2022/02/09 23:07:47;;;;;;;11.10;3.03;;;;;;;;;;5109515;27;20372;-69
2022/02/09 23:10:22;;;;;;;6.70;2.35;;;;;;;;;;5091268;27;20522;-69
2022/02/09 23:12:56;;;;;;;4.65;2.70;;;;;;;;;;5095531;27;20422;-69
2022/02/09 23:15:35;;;;;;;9.00;2.70;;;;;;;;;;5124331;27;20486;-69
2022/02/09 23:18:32;;;;;;;5.18;2.45;;;;;;;;;;5104941;28;20044;-69
2022/02/09 23:24:03;;;;;;;6.40;2.67;;;;;;;;;;5114467;27;20290;-69
2022/02/09 23:54:41;;;;;;;5.93;2.70;;;;;;;;;;5113427;28;20052;-69
